Bonaria — ICUS — position and weather

sailwx.info

Track history (hours):
 
Tides and Currents Weather Stations Pressure Air Temp Water Temp Dewpoint Dewpoint Depression Visibility Wind Speed Wind Dir Waves Ship Positions

Bonaria

Last reported at 2016-Aug-30 20:32 UTC. Time now 2016-Aug-31 00:28 UTC.
Position N 39°15' E 009°47'.

Length 214 m; draft 7 m.

Type: Passenger vessel. MMSI: 247322400.

Date/timePositionNaut miles runAvg speedWind from/ knotsBaromVisibWave heightAir tempDewpointWater temp
2016-Aug-30 20:32N 39°15' E 009°47'32 5.3
2016-Aug-30 14:29N 39°13' E 009°06'0 0.0
2016-Aug-30 13:24N 39°13' E 009°06'0 0.0
2016-Aug-30 12:32N 39°13' E 009°06'72 6.4
2016-Aug-30 01:18N 40°00' E 010°17'1621.2
2016-Aug-30 00:33N 40°15' E 010°26'2121.0
2016-Aug-29 23:33N 40°33' E 010°39'2121.0
2016-Aug-29 22:33N 40°52' E 010°52'4621.3
2016-Aug-29 20:24N 41°33' E 011°19'2021.1
2016-Aug-29 19:26N 41°51' E 011°31'19 2.6
2016-Aug-29 12:10N 42°06' E 011°47'0 0.0
2016-Aug-29 11:25N 42°06' E 011°47'0 0.0
2016-Aug-29 06:32N 42°06' E 011°47'8 7.9
2016-Aug-29 05:32N 42°00' E 011°39'2121.3
2016-Aug-29 04:33N 41°42' E 011°26'2121.0
2016-Aug-29 03:33N 41°23' E 011°14'2020.6
2016-Aug-29 02:33N 41°04' E 011°03'2120.7
2016-Aug-29 01:33N 40°46' E 010°50'10921.0
2016-Aug-28 20:20N 39°08' E 009°45'1519.5
2016-Aug-28 19:33N 38°60' E 009°29'2020.5
2016-Aug-28 18:33N 39°11' E 009°07'2 1.9
2016-Aug-28 17:31N 39°13' E 009°06'0 0.0
2016-Aug-28 16:31N 39°13' E 009°06'0 0.0
2016-Aug-28 15:31N 39°13' E 009°06'0 0.0
2016-Aug-28 14:31N 39°13' E 009°06'0 0.0
2016-Aug-28 13:31N 39°13' E 009°06'0 0.0
2016-Aug-28 12:31N 39°13' E 009°06'0 0.0
2016-Aug-28 11:25N 39°13' E 009°06'0 0.0
2016-Aug-28 10:31N 39°13' E 009°06'0 0.0
2016-Aug-28 09:31N 39°13' E 009°06'76 9.1
2016-Aug-28 01:12N 40°03' E 010°19'2021.2
2016-Aug-28 00:16N 40°21' E 010°31'93 4.7
2016-Aug-27 04:33N 41°44' E 011°28'2120.5
2016-Aug-27 03:33N 41°26' E 011°15'2320.9
2016-Aug-27 02:27N 41°05' E 011°02'4021.0
2016-Aug-27 00:33N 40°30' E 010°38'2020.2
2016-Aug-26 23:34N 40°12' E 010°26'2221.0
2016-Aug-26 22:29N 39°52' E 010°12'6120.5
2016-Aug-26 19:32N 38°59' E 009°34'2020.8
2016-Aug-26 18:33N 39°09' E 009°11'5 5.1
2016-Aug-26 17:32N 39°13' E 009°06'0 0.0
2016-Aug-26 16:32N 39°13' E 009°06'0 0.0
2016-Aug-26 15:32N 39°13' E 009°06'0 0.0
2016-Aug-26 14:32N 39°13' E 009°06'0 0.0
2016-Aug-26 13:32N 39°13' E 009°06'0 0.0
2016-Aug-26 12:32N 39°13' E 009°06'0 0.0
2016-Aug-26 11:29N 39°13' E 009°06'0 0.0
2016-Aug-26 10:33N 39°13' E 009°06'0 0.0
2016-Aug-26 09:33N 39°13' E 009°06'0 0.0
2016-Aug-26 08:33N 39°13' E 009°06'0 0.0
2016-Aug-26 07:33N 39°13' E 009°06'0 0.0
2016-Aug-26 06:33N 39°13' E 009°06'2612.3
2016-Aug-26 04:29N 39°01' E 009°36'6 0.2
2016-Aug-24 20:06N 39°06' E 009°42'1119.4
2016-Aug-24 19:33N 38°58' E 009°32'2020.2
2016-Aug-24 18:33N 39°09' E 009°10'4 4.3
2016-Aug-24 17:32N 39°13' E 009°06'0 0.0
2016-Aug-24 16:32N 39°13' E 009°06'0 0.0
2016-Aug-24 15:32N 39°13' E 009°06'0 0.0
2016-Aug-24 14:32N 39°13' E 009°06'0 0.0
2016-Aug-24 13:29N 39°13' E 009°06'0 0.0
2016-Aug-24 12:32N 39°13' E 009°06'0 0.0
2016-Aug-24 11:32N 39°13' E 009°06'0 0.0
2016-Aug-24 10:32N 39°13' E 009°06'0 0.0
2016-Aug-24 09:32N 39°13' E 009°06'0 0.0
2016-Aug-24 08:32N 39°13' E 009°06'0 0.0
2016-Aug-24 07:32N 39°13' E 009°06'0 0.0
2016-Aug-24 06:32N 39°13' E 009°06'2613.2
2016-Aug-24 04:33N 39°03' E 009°38'3 0.1
2016-Aug-22 20:11N 39°05' E 009°41'1118.2
2016-Aug-22 19:33N 39°00' E 009°28'2019.5
2016-Aug-22 18:33N 39°11' E 009°07'2 1.5
2016-Aug-22 17:31N 39°13' E 009°06'0 0.0
2016-Aug-22 16:31N 39°13' E 009°06'0 0.0
2016-Aug-22 15:31N 39°13' E 009°06'0 0.0
2016-Aug-22 14:25N 39°13' E 009°06'0 0.0
2016-Aug-22 13:31N 39°13' E 009°06'0 0.0
2016-Aug-22 12:31N 39°13' E 009°06'0 0.0
2016-Aug-22 11:31N 39°13' E 009°06'0 0.0
2016-Aug-22 10:28N 39°13' E 009°06'0 0.0
2016-Aug-22 09:31N 39°13' E 009°06'0 0.0
2016-Aug-22 08:31N 39°13' E 009°06'2 1.6
2016-Aug-22 07:33N 39°11' E 009°07'2323.1
2016-Aug-22 06:33N 38°59' E 009°32'8625.5
2016-Aug-22 03:11N 40°14' E 010°27'65 6.0
2016-Aug-21 16:14N 41°20' E 010°22'4412.0
2016-Aug-21 12:34N 40°55' E 009°33'12315.3
2016-Aug-21 04:33N 42°06' E 011°47'8 7.8
2016-Aug-21 03:33N 42°00' E 011°39'3125.2
2016-Aug-21 02:20N 41°33' E 011°20'2025.3
2016-Aug-21 01:33N 41°15' E 011°08'5025.4
2016-Aug-20 23:33N 40°30' E 010°38'2525.5
2016-Aug-20 22:34N 40°08' E 010°23'3425.6
2016-Aug-20 21:14N 39°37' E 010°03'  
Track history (hours):
 
Tides and Currents Weather Stations Pressure Air Temp Water Temp Dewpoint Dewpoint Depression Visibility Wind Speed Wind Dir Waves Ship Positions

Bonaria

Last reported at 2016-Aug-30 20:32 UTC. Time now 2016-Aug-31 00:28 UTC.
Position N 39°15' E 009°47'.

Length 214 m; draft 7 m.

Type: Passenger vessel. MMSI: 247322400.

Date/timePositionNaut miles runAvg speedWind from/ knotsBaromVisibWave heightAir tempDewpointWater temp
2016-Aug-30 20:32N 39°15' E 009°47'32 5.3
2016-Aug-30 14:29N 39°13' E 009°06'0 0.0
2016-Aug-30 13:24N 39°13' E 009°06'0 0.0
2016-Aug-30 12:32N 39°13' E 009°06'72 6.4
2016-Aug-30 01:18N 40°00' E 010°17'1621.2
2016-Aug-30 00:33N 40°15' E 010°26'2121.0
2016-Aug-29 23:33N 40°33' E 010°39'2121.0
2016-Aug-29 22:33N 40°52' E 010°52'4621.3
2016-Aug-29 20:24N 41°33' E 011°19'2021.1
2016-Aug-29 19:26N 41°51' E 011°31'19 2.6
2016-Aug-29 12:10N 42°06' E 011°47'0 0.0
2016-Aug-29 11:25N 42°06' E 011°47'0 0.0
2016-Aug-29 06:32N 42°06' E 011°47'8 7.9
2016-Aug-29 05:32N 42°00' E 011°39'2121.3
2016-Aug-29 04:33N 41°42' E 011°26'2121.0
2016-Aug-29 03:33N 41°23' E 011°14'2020.6
2016-Aug-29 02:33N 41°04' E 011°03'2120.7
2016-Aug-29 01:33N 40°46' E 010°50'10921.0
2016-Aug-28 20:20N 39°08' E 009°45'1519.5
2016-Aug-28 19:33N 38°60' E 009°29'2020.5
2016-Aug-28 18:33N 39°11' E 009°07'2 1.9
2016-Aug-28 17:31N 39°13' E 009°06'0 0.0
2016-Aug-28 16:31N 39°13' E 009°06'0 0.0
2016-Aug-28 15:31N 39°13' E 009°06'0 0.0
2016-Aug-28 14:31N 39°13' E 009°06'0 0.0
2016-Aug-28 13:31N 39°13' E 009°06'0 0.0
2016-Aug-28 12:31N 39°13' E 009°06'0 0.0
2016-Aug-28 11:25N 39°13' E 009°06'0 0.0
2016-Aug-28 10:31N 39°13' E 009°06'0 0.0
2016-Aug-28 09:31N 39°13' E 009°06'76 9.1
2016-Aug-28 01:12N 40°03' E 010°19'2021.2
2016-Aug-28 00:16N 40°21' E 010°31'93 4.7
2016-Aug-27 04:33N 41°44' E 011°28'2120.5
2016-Aug-27 03:33N 41°26' E 011°15'2320.9
2016-Aug-27 02:27N 41°05' E 011°02'4021.0
2016-Aug-27 00:33N 40°30' E 010°38'2020.2
2016-Aug-26 23:34N 40°12' E 010°26'2221.0
2016-Aug-26 22:29N 39°52' E 010°12'6120.5
2016-Aug-26 19:32N 38°59' E 009°34'2020.8
2016-Aug-26 18:33N 39°09' E 009°11'5 5.1
2016-Aug-26 17:32N 39°13' E 009°06'0 0.0
2016-Aug-26 16:32N 39°13' E 009°06'0 0.0
2016-Aug-26 15:32N 39°13' E 009°06'0 0.0
2016-Aug-26 14:32N 39°13' E 009°06'0 0.0
2016-Aug-26 13:32N 39°13' E 009°06'0 0.0
2016-Aug-26 12:32N 39°13' E 009°06'0 0.0
2016-Aug-26 11:29N 39°13' E 009°06'0 0.0
2016-Aug-26 10:33N 39°13' E 009°06'0 0.0
2016-Aug-26 09:33N 39°13' E 009°06'0 0.0
2016-Aug-26 08:33N 39°13' E 009°06'0 0.0
2016-Aug-26 07:33N 39°13' E 009°06'0 0.0
2016-Aug-26 06:33N 39°13' E 009°06'2612.3
2016-Aug-26 04:29N 39°01' E 009°36'6 0.2
2016-Aug-24 20:06N 39°06' E 009°42'1119.4
2016-Aug-24 19:33N 38°58' E 009°32'2020.2
2016-Aug-24 18:33N 39°09' E 009°10'4 4.3
2016-Aug-24 17:32N 39°13' E 009°06'0 0.0
2016-Aug-24 16:32N 39°13' E 009°06'0 0.0
2016-Aug-24 15:32N 39°13' E 009°06'0 0.0
2016-Aug-24 14:32N 39°13' E 009°06'0 0.0
2016-Aug-24 13:29N 39°13' E 009°06'0 0.0
2016-Aug-24 12:32N 39°13' E 009°06'0 0.0
2016-Aug-24 11:32N 39°13' E 009°06'0 0.0
2016-Aug-24 10:32N 39°13' E 009°06'0 0.0
2016-Aug-24 09:32N 39°13' E 009°06'0 0.0
2016-Aug-24 08:32N 39°13' E 009°06'0 0.0
2016-Aug-24 07:32N 39°13' E 009°06'0 0.0
2016-Aug-24 06:32N 39°13' E 009°06'2613.2
2016-Aug-24 04:33N 39°03' E 009°38'3 0.1
2016-Aug-22 20:11N 39°05' E 009°41'1118.2
2016-Aug-22 19:33N 39°00' E 009°28'2019.5
2016-Aug-22 18:33N 39°11' E 009°07'2 1.5
2016-Aug-22 17:31N 39°13' E 009°06'0 0.0
2016-Aug-22 16:31N 39°13' E 009°06'0 0.0
2016-Aug-22 15:31N 39°13' E 009°06'0 0.0
2016-Aug-22 14:25N 39°13' E 009°06'0 0.0
2016-Aug-22 13:31N 39°13' E 009°06'0 0.0
2016-Aug-22 12:31N 39°13' E 009°06'0 0.0
2016-Aug-22 11:31N 39°13' E 009°06'0 0.0
2016-Aug-22 10:28N 39°13' E 009°06'0 0.0
2016-Aug-22 09:31N 39°13' E 009°06'0 0.0
2016-Aug-22 08:31N 39°13' E 009°06'2 1.6
2016-Aug-22 07:33N 39°11' E 009°07'2323.1
2016-Aug-22 06:33N 38°59' E 009°32'8625.5
2016-Aug-22 03:11N 40°14' E 010°27'65 6.0
2016-Aug-21 16:14N 41°20' E 010°22'4412.0
2016-Aug-21 12:34N 40°55' E 009°33'12315.3
2016-Aug-21 04:33N 42°06' E 011°47'8 7.8
2016-Aug-21 03:33N 42°00' E 011°39'3125.2
2016-Aug-21 02:20N 41°33' E 011°20'2025.3
2016-Aug-21 01:33N 41°15' E 011°08'5025.4
2016-Aug-20 23:33N 40°30' E 010°38'2525.5
2016-Aug-20 22:34N 40°08' E 010°23'3425.6
2016-Aug-20 21:14N 39°37' E 010°03'  

Dump ship's entire track history